Harrison, NJ

8:26 AM EDT on March 28, 2017 (GMT -0400)
| | Change Station

Elev -9999 ft 0.00 °N, 0.00 °E | Updated 5 minutes ago

Overcast
Overcast
°F
Feels Like °F
N
Wind Variable Wind from North
Gusts mph

Today
High -- | Low -- °F
--% Chance of Precip.
Yesterday
High -- | Low -- °F
Precip. -- in
Pressure 29.96 in
Visibility 5.0 miles
Clouds Overcast 700 ft
Dew Point Not available.
Humidity Not available.
Rainfall --
Snow Depth Not available.
6:46 AM 7:17 PM
New Moon, 0% visible
METAR KEWR 281151Z 06006KT 5SM BR OVC007 07/07 A2996 RMK AO2 SLP143 CIG 005V009 60020 70039 T00720067 10094 20067 53002
Pressure 29.96 in
Visibility 5.0 miles
Clouds Overcast 700 ft
Dew Point Not available.
Humidity Not available.
Rainfall --
Snow Depth Not available.
6:46 AM 7:17 PM
New Moon, 0% visible
METAR KEWR 281151Z 06006KT 5SM BR OVC007 07/07 A2996 RMK AO2 SLP143 CIG 005V009 60020 70039 T00720067 10094 20067 53002

Get Severe Weather Alerts

Thanks for signing up!

Be on the lookout for a verification email in your inbox.

You'll start receiving the daily forecast at 8 AM.

×

10-Day Weather Forecast

Almanac

Astronomy

Mar. 28, 2017 Rise Set
Actual Time
Civil Twilight
Nautical Twilight
Astronomical Twilight
Moon
Length of Visible Light
Length of Day
Tomorrow will be .
, % of the Moon is Illuminated

Today's Extremes

State Highs State Lows

Community

WunderPhotos

Upload Photos

1,962,540 photos uploaded!

WunderBlog® & News

Nearby

Air Quality

  Air Quality AQ Index Pollutant
Not available.

Snow Depth

Station Depth Elevation

Earthquake Activity

City Distance Mag. Time & Date
Minimum magnitude displayed is 2.5.

Earthquake Activity

City Distance Mag. Time & Date
Minimum magnitude displayed is 2.5.

Coastal Water Temperatures

Place Temperature

Stations

Nearby Weather Stations

Station Location Temp. Windchill Dew Point Humidity Wind Precip. Elev Updated Type
                   

Watches & Warnings

There are currently no watches in effect.